Time;durP1;ratioP1;P1;durP2;ratioP2;P2;SDS_P1;SDS_P2;PMS_P1;PMS_P2;Temp;Humidity;BMP_temperature;BMP_pressure;BME280_temperature;BME280_humidity;BME280_pressure;Samples;Min_cycle;Max_cycle;Signal;HPM_P1;HPM_P2
2023/08/15 00:02:05;;;;;;;5.15;3.70;;;;;;;22.29;100.00;96617.13;5042129;28;20225;-63
2023/08/15 00:04:32;;;;;;;4.63;4.13;;;;;;;22.25;100.00;96620.47;5043082;28;20224;-64
2023/08/15 00:06:58;;;;;;;4.28;3.55;;;;;;;22.20;100.00;96615.75;5045962;28;20305;-64
2023/08/15 00:09:25;;;;;;;3.72;3.42;;;;;;;22.16;100.00;96613.69;5044754;28;20207;-64
2023/08/15 00:11:52;;;;;;;4.53;3.40;;;;;;;22.16;100.00;96608.31;5046099;28;20221;-62
2023/08/15 00:14:20;;;;;;;3.90;3.60;;;;;;;22.14;100.00;96602.31;5044494;28;20191;-65
2023/08/15 00:16:48;;;;;;;6.55;3.65;;;;;;;22.11;100.00;96600.88;5046224;28;20293;-64
2023/08/15 00:19:14;;;;;;;7.35;4.07;;;;;;;22.11;100.00;96600.03;5045811;28;20548;-65
2023/08/15 00:21:40;;;;;;;3.90;3.60;;;;;;;22.06;100.00;96598.00;5045772;28;20204;-62
2023/08/15 00:24:08;;;;;;;6.57;3.70;;;;;;;22.05;100.00;96598.22;5045912;28;20231;-64
2023/08/15 00:26:34;;;;;;;3.75;3.08;;;;;;;21.98;100.00;96592.03;5046755;28;20200;-63
2023/08/15 00:29:00;;;;;;;5.25;3.75;;;;;;;21.93;100.00;96597.25;5047480;28;20230;-65
2023/08/15 00:31:27;;;;;;;4.05;3.40;;;;;;;21.81;100.00;96594.38;5045091;28;20640;-64
2023/08/15 00:33:55;;;;;;;4.35;3.53;;;;;;;21.81;100.00;96592.53;5045399;28;20211;-65
2023/08/15 00:36:21;;;;;;;3.40;3.20;;;;;;;21.73;100.00;96595.44;5044491;28;20215;-64
2023/08/15 00:38:48;;;;;;;4.65;3.13;;;;;;;21.70;100.00;96595.88;5045302;28;20218;-64
2023/08/15 00:41:14;;;;;;;3.35;3.10;;;;;;;21.68;100.00;96589.88;5044818;28;20501;-62
2023/08/15 00:43:41;;;;;;;4.13;3.20;;;;;;;21.62;100.00;96588.03;5043789;28;20231;-63
2023/08/15 00:46:08;;;;;;;3.95;2.80;;;;;;;21.59;100.00;96585.78;5044224;28;20214;-65
2023/08/15 00:48:35;;;;;;;3.58;3.28;;;;;;;21.60;100.00;96583.91;5043640;28;20261;-62
2023/08/15 00:51:07;;;;;;;3.13;2.85;;;;;;;21.59;100.00;96582.25;5044882;28;20204;-62
2023/08/15 00:53:35;;;;;;;4.00;3.10;;;;;;;21.56;100.00;96578.13;5043892;28;20192;-63
2023/08/15 00:56:01;;;;;;;5.85;3.20;;;;;;;21.56;100.00;96572.75;5044224;28;20635;-64
2023/08/15 00:58:29;;;;;;;3.85;2.97;;;;;;;21.49;100.00;96576.50;5042863;28;21465;-63
2023/08/15 01:00:56;;;;;;;3.30;3.00;;;;;;;21.48;100.00;96575.66;5044842;28;20302;-62
2023/08/15 01:03:22;;;;;;;3.30;3.05;;;;;;;21.44;100.00;96581.69;5044921;28;20578;-62
2023/08/15 01:05:50;;;;;;;5.18;3.47;;;;;;;21.43;100.00;96588.94;5045079;28;20203;-63
2023/08/15 01:08:17;;;;;;;4.35;2.95;;;;;;;21.43;100.00;96578.19;5045747;28;20198;-65
2023/08/15 01:10:44;;;;;;;5.30;3.20;;;;;;;21.46;100.00;96577.75;5044851;28;20208;-65
2023/08/15 01:13:15;;;;;;;3.17;2.92;;;;;;;21.41;100.00;96580.25;5042971;28;20635;-64
2023/08/15 01:15:46;;;;;;;5.70;3.30;;;;;;;21.46;100.00;96576.94;5043242;28;20195;-64
2023/08/15 01:18:16;;;;;;;4.88;3.40;;;;;;;21.47;100.00;96574.00;5042403;28;20529;-63
2023/08/15 01:20:42;;;;;;;3.53;3.22;;;;;;;21.47;100.00;96574.00;5043491;28;20652;-65
2023/08/15 01:23:09;;;;;;;3.50;3.20;;;;;;;21.48;100.00;96575.66;5043199;28;20220;-64
2023/08/15 01:25:41;;;;;;;3.38;3.03;;;;;;;21.48;100.00;96572.97;5044275;28;20199;-63
2023/08/15 01:28:12;;;;;;;3.47;3.10;;;;;;;21.51;100.00;96580.63;5044328;28;20204;-63
2023/08/15 01:30:40;;;;;;;3.97;3.20;;;;;;;21.56;100.00;96578.13;5026201;28;20390;-63
2023/08/15 01:33:12;;;;;;;5.00;3.30;;;;;;;21.60;100.00;96573.97;5043656;28;20198;-62
2023/08/15 01:35:40;;;;;;;3.65;3.30;;;;;;;21.60;100.00;96567.75;5043542;28;20538;-64
2023/08/15 01:38:10;;;;;;;3.53;3.10;;;;;;;21.64;100.00;96571.69;5043426;28;20207;-63
2023/08/15 01:40:36;;;;;;;4.15;3.15;;;;;;;21.58;100.00;96575.22;5024354;28;20199;-63
2023/08/15 01:43:06;;;;;;;4.13;3.72;;;;;;;21.63;100.00;96568.16;5042715;28;20223;-63
2023/08/15 01:45:34;;;;;;;3.85;3.55;;;;;;;21.63;100.00;96568.16;5042802;28;20215;-63
2023/08/15 01:48:02;;;;;;;3.55;3.22;;;;;;;21.65;100.00;96568.75;5043539;28;20214;-64
2023/08/15 01:50:28;;;;;;;4.30;3.35;;;;;;;21.68;100.00;96565.63;5043660;28;20211;-63
2023/08/15 01:52:55;;;;;;;3.55;3.25;;;;;;;21.70;100.00;96557.38;5048141;28;20215;-63
2023/08/15 01:55:23;;;;;;;5.80;3.20;;;;;;;21.71;100.00;96556.34;5048625;28;20218;-65
2023/08/15 01:57:52;;;;;;;3.85;3.25;;;;;;;21.64;100.00;96561.75;5050312;28;20200;-63
2023/08/15 02:00:21;;;;;;;4.28;3.10;;;;;;;21.64;100.00;96559.06;5044173;28;20237;-62
2023/08/15 02:02:47;;;;;;;4.57;3.00;;;;;;;21.64;100.00;96559.06;5042270;28;20245;-62
2023/08/15 02:05:14;;;;;;;4.70;3.10;;;;;;;21.66;100.00;96562.34;5043771;28;20235;-63
2023/08/15 02:07:40;;;;;;;3.10;2.85;;;;;;;21.67;100.00;96558.63;5043482;28;20294;-63
2023/08/15 02:10:07;;;;;;;3.40;3.13;;;;;;;21.68;100.00;96546.78;5041973;28;20211;-65
2023/08/15 02:12:34;;;;;;;3.42;3.13;;;;;;;21.69;100.00;96542.25;5043060;28;20200;-65
2023/08/15 02:15:04;;;;;;;3.78;3.50;;;;;;;21.70;100.00;96547.44;5043464;28;20200;-63
2023/08/15 02:17:32;;;;;;;5.72;3.20;;;;;;;21.67;100.00;96550.56;5051702;28;20314;-65
2023/08/15 02:20:05;;;;;;;4.03;3.67;;;;;;;21.68;100.00;96544.09;5057433;28;20220;-65
2023/08/15 02:22:32;;;;;;;5.55;3.15;;;;;;;21.68;100.00;96538.72;5046831;28;20200;-64
2023/08/15 02:25:00;;;;;;;3.20;3.00;;;;;;;21.67;100.00;96534.41;5042512;28;20231;-62
2023/08/15 02:27:26;;;;;;;4.88;2.72;;;;;;;21.66;100.00;96532.75;5042049;28;20207;-63
2023/08/15 02:29:54;;;;;;;3.17;2.97;;;;;;;21.67;100.00;96530.88;5042813;28;20207;-63
2023/08/15 02:32:20;;;;;;;3.42;3.05;;;;;;;21.62;100.00;96531.53;5041861;28;20660;-64
2023/08/15 02:34:48;;;;;;;3.65;3.10;;;;;;;21.64;100.00;96532.16;5051356;28;20207;-65
2023/08/15 02:37:15;;;;;;;5.10;3.33;;;;;;;21.62;100.00;96526.13;5060996;28;20207;-63
2023/08/15 02:39:43;;;;;;;5.05;2.90;;;;;;;21.66;100.00;96534.59;5060457;28;20195;-65
2023/08/15 02:42:10;;;;;;;3.25;2.90;;;;;;;21.65;100.00;96528.38;5042596;28;20215;-63
2023/08/15 02:44:36;;;;;;;2.70;2.60;;;;;;;21.63;100.00;96535.88;5042362;28;20627;-63
2023/08/15 02:47:03;;;;;;;4.63;3.47;;;;;;;21.65;100.00;96535.63;5042245;28;20218;-63
2023/08/15 02:49:30;;;;;;;4.70;2.95;;;;;;;21.64;100.00;96532.16;5042566;28;20199;-63
2023/08/15 02:51:58;;;;;;;4.32;2.90;;;;;;;21.65;100.00;96523.00;5042037;28;20219;-62
2023/08/15 02:54:25;;;;;;;2.60;2.40;;;;;;;21.65;100.00;96528.38;5042025;28;20191;-63
2023/08/15 02:56:51;;;;;;;2.92;2.65;;;;;;;21.63;100.00;96524.28;5041399;28;20210;-63
2023/08/15 02:59:18;;;;;;;5.25;2.90;;;;;;;21.61;100.00;96521.78;5040606;28;20215;-63
2023/08/15 03:01:46;;;;;;;4.13;2.97;;;;;;;21.60;100.00;96514.78;5041623;28;20219;-63
2023/08/15 03:04:13;;;;;;;4.18;2.97;;;;;;;21.57;100.00;96515.22;5041334;28;20301;-62
2023/08/15 03:06:39;;;;;;;2.95;2.58;;;;;;;21.59;100.00;96509.59;5041898;28;20208;-65
2023/08/15 03:09:07;;;;;;;2.95;2.67;;;;;;;21.59;100.00;96507.72;5041754;28;20203;-63
2023/08/15 03:11:33;;;;;;;3.10;2.80;;;;;;;21.56;100.00;96502.78;5041460;28;20215;-64
2023/08/15 03:14:00;;;;;;;2.80;2.60;;;;;;;21.51;100.00;96504.44;5041501;28;20206;-65
2023/08/15 03:16:27;;;;;;;4.93;2.88;;;;;;;21.52;100.00;96508.81;5041253;28;20204;-63
2023/08/15 03:18:53;;;;;;;3.53;2.65;;;;;;;21.51;100.00;96507.97;5043087;28;20199;-63
2023/08/15 03:21:20;;;;;;;3.80;2.80;;;;;;;21.47;100.00;96514.81;5041264;28;20215;-63
2023/08/15 03:23:46;;;;;;;3.13;2.90;;;;;;;21.46;100.00;96523.94;5041441;28;20800;-64
2023/08/15 03:26:14;;;;;;;3.03;2.72;;;;;;;21.43;100.00;96523.53;5042199;28;20222;-63
2023/08/15 03:28:41;;;;;;;2.75;2.55;;;;;;;21.43;100.00;96532.44;5040056;28;20689;-63
2023/08/15 03:31:08;;;;;;;3.28;2.80;;;;;;;21.40;100.00;96523.97;5042413;28;20215;-64
2023/08/15 03:33:35;;;;;;;2.90;2.60;;;;;;;21.42;100.00;96524.59;5040853;28;20222;-64
2023/08/15 03:36:02;;;;;;;3.13;2.88;;;;;;;21.38;100.00;96518.81;5041751;28;20227;-63
2023/08/15 03:38:28;;;;;;;3.13;2.72;;;;;;;21.34;100.00;96521.09;5041180;28;20233;-62
2023/08/15 03:41:01;;;;;;;3.45;2.92;;;;;;;21.34;100.00;96518.41;5039434;28;20536;-62
2023/08/15 03:43:29;;;;;;;5.95;3.00;;;;;;;21.29;100.00;96523.59;5041718;28;20257;-62
2023/08/15 03:45:58;;;;;;;3.03;2.75;;;;;;;21.28;100.00;96526.50;5045269;28;20211;-63
2023/08/15 03:48:25;;;;;;;5.05;2.95;;;;;;;21.25;100.00;96526.94;5023877;28;20224;-63
2023/08/15 03:50:55;;;;;;;3.35;3.00;;;;;;;21.24;100.00;96526.09;5041767;28;20265;-64
2023/08/15 03:53:21;;;;;;;2.80;2.60;;;;;;;21.23;100.00;96534.38;5041368;28;20528;-63
2023/08/15 03:55:49;;;;;;;7.70;3.20;;;;;;;21.20;100.00;96534.78;5040605;28;20207;-64
2023/08/15 03:58:15;;;;;;;3.08;2.75;;;;;;;21.15;100.00;96543.50;5040735;28;20265;-64
2023/08/15 04:00:43;;;;;;;4.50;2.75;;;;;;;21.20;100.00;96541.00;5048222;28;20218;-64
2023/08/15 04:03:10;;;;;;;6.47;2.78;;;;;;;21.23;100.00;96547.81;5046663;28;20253;-63
2023/08/15 04:05:36;;;;;;;3.55;3.05;;;;;;;21.19;100.00;96549.28;5047327;28;20235;-63
2023/08/15 04:08:03;;;;;;;3.40;3.03;;;;;;;21.16;100.00;96555.91;5041659;28;20203;-63
2023/08/15 04:10:29;;;;;;;4.43;2.90;;;;;;;21.17;100.00;96554.03;5040474;28;20720;-65
2023/08/15 04:12:59;;;;;;;2.97;2.60;;;;;;;21.15;100.00;96556.13;5041303;28;20207;-63
2023/08/15 04:15:25;;;;;;;2.90;2.70;;;;;;;21.13;100.00;96556.34;5041253;28;20290;-63
2023/08/15 04:17:54;;;;;;;3.05;2.75;;;;;;;21.14;100.00;96563.38;5042071;28;20207;-63
2023/08/15 04:20:21;;;;;;;8.35;3.25;;;;;;;21.10;100.00;96556.75;5041214;28;20212;-63
2023/08/15 04:22:48;;;;;;;8.43;7.72;;;;;;;21.12;100.00;96559.22;5040391;28;21791;-63
2023/08/15 04:25:15;;;;;;;4.10;3.28;;;;;;;21.09;100.00;96551.53;5041211;28;20226;-63
2023/08/15 04:27:41;;;;;;;3.10;2.90;;;;;;;21.09;100.00;96554.25;5039945;28;20218;-64
2023/08/15 04:30:09;;;;;;;3.13;2.83;;;;;;;21.07;100.00;96567.06;5041367;28;20578;-64
2023/08/15 04:32:35;;;;;;;4.10;2.80;;;;;;;21.05;100.00;96563.75;5041625;28;20270;-63
2023/08/15 04:35:03;;;;;;;3.08;2.80;;;;;;;21.07;100.00;96565.22;5041037;28;20207;-63
2023/08/15 04:37:31;;;;;;;3.58;2.90;;;;;;;21.03;100.00;96566.69;5040360;28;20211;-65
2023/08/15 04:39:58;;;;;;;2.90;2.70;;;;;;;21.06;100.00;96565.41;5040498;28;20280;-64
2023/08/15 04:42:24;;;;;;;3.15;2.92;;;;;;;21.09;100.00;96581.13;5040923;28;20218;-62
2023/08/15 04:44:50;;;;;;;3.30;3.00;;;;;;;21.08;100.00;96584.88;5041366;28;20227;-62
2023/08/15 04:47:19;;;;;;;3.88;3.58;;;;;;;21.07;100.00;96583.22;5048499;28;20203;-60
2023/08/15 04:49:46;;;;;;;3.30;2.97;;;;;;;21.09;100.00;96591.88;5048075;28;20647;-61
2023/08/15 04:52:21;;;;;;;5.97;3.38;;;;;;;21.08;100.00;96603.69;5051324;28;20262;-60
2023/08/15 04:54:47;;;;;;;3.53;3.22;;;;;;;21.10;100.00;96601.63;5053355;28;20266;-62
2023/08/15 04:57:14;;;;;;;5.78;3.45;;;;;;;21.12;100.00;96592.31;5042997;28;20203;-61
2023/08/15 04:59:41;;;;;;;3.55;3.17;;;;;;;21.12;100.00;96608.47;5043676;28;20191;-59
2023/08/15 05:02:08;;;;;;;3.28;2.97;;;;;;;21.12;100.00;96603.06;5044780;28;20207;-58
2023/08/15 05:04:34;;;;;;;4.20;3.40;;;;;;;21.15;100.00;96612.63;5043571;28;20235;-59
2023/08/15 05:07:01;;;;;;;3.97;3.50;;;;;;;21.18;100.00;96621.09;5043184;28;20212;-59
2023/08/15 05:09:29;;;;;;;3.58;3.28;;;;;;;21.22;100.00;96624.19;5043654;28;20621;-59
2023/08/15 05:11:56;;;;;;;3.92;3.63;;;;;;;21.23;100.00;96628.50;5043479;28;20222;-57
2023/08/15 05:14:22;;;;;;;3.55;3.30;;;;;;;21.26;100.00;96625.38;5044159;28;20215;-58
2023/08/15 05:16:50;;;;;;;3.83;3.20;;;;;;;21.29;100.00;96625.00;5043930;28;20477;-58
2023/08/15 05:19:16;;;;;;;3.83;3.53;;;;;;;21.30;100.00;96626.63;5043408;28;20211;-59
2023/08/15 05:21:45;;;;;;;5.68;3.60;;;;;;;21.30;100.00;96629.31;5043659;28;20296;-58
2023/08/15 05:24:11;;;;;;;3.83;3.47;;;;;;;21.31;100.00;96630.97;5043004;28;20206;-59
2023/08/15 05:26:39;;;;;;;3.70;3.50;;;;;;;21.34;100.00;96639.47;5043480;28;20691;-62
2023/08/15 05:29:06;;;;;;;3.47;3.28;;;;;;;21.38;100.00;96641.72;5041686;28;20214;-63
2023/08/15 05:31:35;;;;;;;4.22;3.83;;;;;;;21.42;100.00;96651.03;5043398;28;20211;-62
2023/08/15 05:34:02;;;;;;;4.55;3.78;;;;;;;21.45;100.00;96656.81;5043054;28;20199;-61
2023/08/15 05:36:28;;;;;;;4.57;3.80;;;;;;;21.46;100.00;96649.56;5042393;28;20279;-61
2023/08/15 05:38:54;;;;;;;6.35;3.95;;;;;;;21.49;100.00;96646.47;5043292;28;20203;-62
2023/08/15 05:41:21;;;;;;;4.55;3.65;;;;;;;21.54;100.00;96655.53;5042653;28;20231;-61
2023/08/15 05:43:50;;;;;;;3.80;3.38;;;;;;;21.57;100.00;96652.44;5042597;28;20196;-62
2023/08/15 05:46:16;;;;;;;4.00;3.60;;;;;;;21.61;100.00;96661.72;5043070;28;20224;-62
2023/08/15 05:48:43;;;;;;;3.83;3.60;;;;;;;21.65;100.00;96659.44;5041635;28;20212;-61
2023/08/15 05:51:09;;;;;;;4.22;3.92;;;;;;;21.67;100.00;96660.06;5042745;28;20204;-62
2023/08/15 05:53:35;;;;;;;4.53;3.70;;;;;;;21.66;100.00;96664.63;5041850;28;20666;-62
2023/08/15 05:56:02;;;;;;;7.45;4.03;;;;;;;21.68;100.00;96661.75;5043382;28;20196;-62
2023/08/15 05:58:28;;;;;;;4.63;4.07;;;;;;;21.70;100.00;96668.56;5043403;28;20214;-62
2023/08/15 06:00:56;;;;;;;4.38;3.97;;;;;;;21.73;100.00;96680.75;5043063;28;20199;-63
2023/08/15 06:03:22;;;;;;;4.55;4.20;;;;;;;21.74;100.00;96677.88;5041717;28;20710;-61
2023/08/15 06:05:49;;;;;;;4.18;3.78;;;;;;;21.74;100.00;96680.56;5042875;28;20306;-62
2023/08/15 06:08:18;;;;;;;4.22;3.92;;;;;;;21.75;100.00;96684.06;5043146;28;20261;-62
2023/08/15 06:10:44;;;;;;;4.35;4.05;;;;;;;21.72;100.00;96679.09;5042216;28;20216;-61
2023/08/15 06:13:11;;;;;;;4.10;3.65;;;;;;;21.74;100.00;96694.00;5042398;28;20575;-62
2023/08/15 06:15:37;;;;;;;4.40;4.10;;;;;;;21.76;100.00;96696.47;5061599;28;20226;-62
2023/08/15 06:18:05;;;;;;;4.20;3.90;;;;;;;21.76;100.00;96693.78;5064534;28;20208;-62
2023/08/15 06:20:32;;;;;;;4.30;3.78;;;;;;;21.74;100.00;96691.31;5045329;28;20200;-61
2023/08/15 06:22:59;;;;;;;5.28;4.43;;;;;;;21.76;100.00;96702.69;5041177;28;20876;-61
2023/08/15 06:25:26;;;;;;;5.72;5.22;;;;;;;21.77;100.00;96709.75;5041694;28;20223;-61
2023/08/15 06:27:53;;;;;;;4.75;4.35;;;;;;;21.79;100.00;96693.34;5042148;28;20598;-61
2023/08/15 06:30:19;;;;;;;5.05;4.63;;;;;;;21.81;100.00;96705.59;5041752;28;20213;-62
2023/08/15 06:32:46;;;;;;;4.78;4.38;;;;;;;21.82;100.00;96707.22;5055384;28;20207;-62
2023/08/15 06:35:14;;;;;;;4.38;4.07;;;;;;;21.85;100.00;96716.75;5060441;28;20203;-61
2023/08/15 06:37:41;;;;;;;5.00;4.60;;;;;;;21.86;100.00;96712.22;5059019;28;20301;-61
2023/08/15 06:40:09;;;;;;;5.07;4.20;;;;;;;21.88;100.00;96718.19;5042461;28;20581;-62
2023/08/15 06:42:36;;;;;;;7.32;4.40;;;;;;;21.86;100.00;96723.78;5042322;28;20232;-62
2023/08/15 06:45:06;;;;;;;8.48;5.15;;;;;;;21.88;100.00;96735.19;5041690;28;20220;-61
2023/08/15 06:47:32;;;;;;;6.93;5.00;;;;;;;21.91;100.00;96728.56;5043045;28;20199;-61
2023/08/15 06:49:59;;;;;;;5.60;5.03;;;;;;;21.90;100.00;96734.94;5042254;28;20203;-61
2023/08/15 06:52:26;;;;;;;6.05;4.78;;;;;;;21.92;100.00;96743.69;5041672;28;20211;-61
2023/08/15 06:54:53;;;;;;;4.97;4.57;;;;;;;21.93;100.00;96748.84;5042365;28;20206;-61
2023/08/15 06:57:19;;;;;;;4.85;4.35;;;;;;;21.94;100.00;96752.38;5041762;28;20208;-61
2023/08/15 06:59:46;;;;;;;4.90;4.40;;;;;;;21.90;100.00;96765.44;5040867;28;20196;-62
2023/08/15 07:02:12;;;;;;;5.50;4.40;;;;;;;21.92;100.00;96759.84;5041572;28;20223;-62
2023/08/15 07:04:40;;;;;;;5.38;4.32;;;;;;;21.95;100.00;96759.44;5040492;28;20227;-61
2023/08/15 07:07:07;;;;;;;4.65;4.22;;;;;;;21.96;100.00;96763.78;5042761;28;20280;-62
2023/08/15 07:09:35;;;;;;;4.93;4.53;;;;;;;22.01;100.00;96761.25;5041076;28;20203;-62
2023/08/15 07:12:05;;;;;;;5.13;4.80;;;;;;;22.05;100.00;96757.13;5041673;28;20192;-61
2023/08/15 07:14:31;;;;;;;4.90;4.50;;;;;;;22.11;100.00;96758.94;5042293;28;20291;-61
2023/08/15 07:16:57;;;;;;;4.78;4.47;;;;;;;22.18;100.00;96760.59;5042051;28;20195;-61
2023/08/15 07:19:24;;;;;;;5.22;4.70;;;;;;;22.24;100.00;96769.69;5041558;28;20204;-62
2023/08/15 07:21:50;;;;;;;4.70;4.30;;;;;;;22.35;100.00;96779.81;5041976;28;20217;-62
2023/08/15 07:24:18;;;;;;;5.20;4.80;;;;;;;22.49;100.00;96783.28;5041449;28;20195;-61
2023/08/15 07:26:46;;;;;;;5.88;5.40;;;;;;;22.58;100.00;96780.13;5041694;28;20224;-61
2023/08/15 07:29:15;;;;;;;7.78;5.95;;;;;;;22.63;100.00;96783.00;5042708;28;20535;-61
2023/08/15 07:31:42;;;;;;;5.97;5.47;;;;;;;22.72;100.00;96778.22;5041822;28;20229;-62
2023/08/15 07:34:08;;;;;;;5.72;5.20;;;;;;;22.77;100.00;96787.31;5042550;28;21429;-61
2023/08/15 07:36:35;;;;;;;5.80;5.28;;;;;;;22.91;100.00;96788.06;5042749;28;20200;-62
2023/08/15 07:39:01;;;;;;;6.00;5.40;;;;;;;23.01;100.00;96792.97;5044745;28;20200;-62
2023/08/15 07:41:28;;;;;;;6.43;5.70;;;;;;;23.06;100.00;96793.16;5042994;28;20208;-60
2023/08/15 07:43:56;;;;;;;6.18;5.70;;;;;;;23.12;100.00;96795.00;5041981;28;20199;-61
2023/08/15 07:46:22;;;;;;;6.13;5.53;;;;;;;23.30;100.00;96803.16;5042807;28;20223;-61
2023/08/15 07:48:50;;;;;;;6.10;5.57;;;;;;;23.72;100.00;96805.13;5041813;28;20219;-62
2023/08/15 07:51:18;;;;;;;5.97;5.38;;;;;;;24.11;100.00;96816.59;5043460;28;20308;-64
2023/08/15 07:53:44;;;;;;;7.35;5.40;;;;;;;24.56;100.00;96809.06;5041752;28;20218;-61
2023/08/15 07:56:11;;;;;;;9.18;5.30;;;;;;;24.81;100.00;96811.66;5041680;28;20201;-62
2023/08/15 07:58:39;;;;;;;5.75;5.22;;;;;;;24.86;100.00;96819.94;5041983;28;20226;-61
2023/08/15 08:01:08;;;;;;;6.50;5.18;;;;;;;24.85;100.00;96818.28;5043336;28;20211;-62
2023/08/15 08:03:38;;;;;;;5.90;5.28;;;;;;;24.90;100.00;96804.91;5040647;28;20231;-61
2023/08/15 08:06:05;;;;;;;6.57;5.88;;;;;;;25.22;100.00;96814.44;5041168;28;20217;-62
2023/08/15 08:08:31;;;;;;;5.95;5.25;;;;;;;25.52;100.00;96809.84;5041393;28;20860;-62
2023/08/15 08:10:58;;;;;;;8.13;5.50;;;;;;;25.84;100.00;96817.63;5046728;28;20195;-62
2023/08/15 08:13:24;;;;;;;5.90;5.30;;;;;;;26.19;100.00;96813.06;5045617;28;20199;-63
2023/08/15 08:15:51;;;;;;;7.40;5.18;;;;;;;26.42;97.86;96821.19;5043851;28;20206;-62
2023/08/15 08:18:19;;;;;;;6.68;4.70;;;;;;;26.70;99.42;96815.81;5040259;28;20208;-63
2023/08/15 08:20:45;;;;;;;7.53;4.82;;;;;;;26.85;94.33;96822.66;5041824;28;20203;-62
2023/08/15 08:23:12;;;;;;;7.30;4.47;;;;;;;27.13;92.54;96819.94;5041119;28;20199;-62
2023/08/15 08:25:39;;;;;;;5.93;4.43;;;;;;;27.32;89.53;96821.38;5040763;28;20216;-62
2023/08/15 08:28:06;;;;;;;5.28;4.18;;;;;;;27.55;89.91;96821.28;5044245;28;20214;-62
2023/08/15 08:30:32;;;;;;;4.88;4.38;;;;;;;27.77;92.17;96815.13;5044646;28;20215;-62
2023/08/15 08:32:59;;;;;;;4.30;3.83;;;;;;;27.88;83.98;96803.34;5044790;28;20215;-62
2023/08/15 08:35:27;;;;;;;4.63;4.20;;;;;;;27.97;83.25;96810.00;5044896;28;20282;-62
2023/08/15 08:37:55;;;;;;;5.82;4.22;;;;;;;28.20;83.32;96806.31;5045019;28;20212;-63
2023/08/15 08:40:22;;;;;;;6.72;4.20;;;;;;;28.33;79.42;96811.38;5044345;28;20621;-63
2023/08/15 08:42:50;;;;;;;6.72;4.20;;;;;;;28.53;80.15;96806.19;5044247;28;20207;-62
2023/08/15 08:45:16;;;;;;;4.78;3.90;;;;;;;28.69;78.94;96805.38;5044621;28;20207;-62
2023/08/15 08:47:45;;;;;;;4.93;4.32;;;;;;;28.51;76.37;96809.19;5046072;28;20203;-62
2023/08/15 08:50:12;;;;;;;6.40;4.00;;;;;;;28.60;75.78;96807.66;5043829;28;20579;-64
2023/08/15 08:52:41;;;;;;;4.25;3.85;;;;;;;28.74;76.13;96807.31;5026790;28;20199;-61
2023/08/15 08:55:08;;;;;;;4.85;4.45;;;;;;;28.84;73.38;96807.47;5053467;28;20214;-63
2023/08/15 08:57:36;;;;;;;4.53;4.13;;;;;;;28.97;75.25;96807.88;5055795;28;20211;-63
2023/08/15 09:00:07;;;;;;;6.78;4.20;;;;;;;28.90;71.31;96809.16;5056527;28;20195;-62
2023/08/15 09:02:34;;;;;;;7.15;4.53;;;;;;;28.93;72.88;96811.34;5057685;28;20207;-63
2023/08/15 09:05:01;;;;;;;4.82;4.32;;;;;;;29.14;75.30;96808.59;5054373;28;20595;-63
2023/08/15 09:07:28;;;;;;;4.75;4.32;;;;;;;29.08;71.23;96809.66;5051980;28;20226;-63
2023/08/15 09:09:55;;;;;;;5.95;4.50;;;;;;;29.28;71.29;96810.94;5043691;28;20227;-62
2023/08/15 09:12:32;;;;;;;5.78;4.30;;;;;;;29.32;73.73;96804.75;5043527;28;20655;-60
2023/08/15 09:14:59;;;;;;;4.57;4.18;;;;;;;29.55;71.60;96807.13;5043840;28;20841;-61
2023/08/15 09:17:26;;;;;;;4.93;4.38;;;;;;;29.69;71.83;96809.44;5044212;28;20211;-62
2023/08/15 09:19:53;;;;;;;6.65;4.53;;;;;;;29.59;68.86;96807.44;5043255;28;20241;-63
2023/08/15 09:22:24;;;;;;;6.45;4.75;;;;;;;29.38;67.76;96798.25;5044089;28;20218;-62
2023/08/15 09:24:51;;;;;;;5.65;3.97;;;;;;;29.09;68.49;96797.66;5043900;28;20203;-62
2023/08/15 09:27:19;;;;;;;5.57;4.03;;;;;;;29.32;72.23;96788.38;5043565;28;20219;-61
2023/08/15 09:29:45;;;;;;;6.85;4.53;;;;;;;29.23;67.19;96789.88;5043978;28;20195;-62
2023/08/15 09:32:12;;;;;;;5.75;4.10;;;;;;;29.15;67.92;96787.66;5043870;28;20211;-62
2023/08/15 09:34:38;;;;;;;5.30;4.57;;;;;;;29.28;69.95;96779.09;5044117;28;20199;-62
2023/08/15 09:37:05;;;;;;;4.60;4.00;;;;;;;29.57;71.37;96785.91;5043062;28;20196;-62
2023/08/15 09:39:31;;;;;;;4.60;3.88;;;;;;;29.85;66.63;96792.13;5042293;28;20208;-63
2023/08/15 09:41:58;;;;;;;4.78;4.10;;;;;;;29.97;68.84;96790.06;5043407;28;20207;-62
2023/08/15 09:44:37;;;;;;;5.60;4.22;;;;;;;30.09;66.41;96787.94;5043365;28;20223;-61
2023/08/15 09:47:05;;;;;;;6.22;4.15;;;;;;;30.31;67.61;96775.00;5042815;28;20649;-62
2023/08/15 09:49:33;;;;;;;4.95;4.40;;;;;;;30.57;67.80;96770.50;5044445;28;20213;-62
2023/08/15 09:52:00;;;;;;;5.03;4.50;;;;;;;30.57;65.48;96773.25;5043135;28;20203;-63
2023/08/15 09:54:29;;;;;;;5.28;4.18;;;;;;;30.75;66.67;96777.41;5043811;28;20226;-62
2023/08/15 09:56:55;;;;;;;4.45;4.05;;;;;;;30.96;65.45;96776.38;5043700;28;20210;-62
2023/08/15 09:59:21;;;;;;;6.38;4.45;;;;;;;30.75;64.99;96780.13;5044046;28;20208;-62
2023/08/15 10:01:52;;;;;;;5.20;3.88;;;;;;;30.77;63.14;96769.75;5042615;28;20207;-62
2023/08/15 10:04:19;;;;;;;4.75;4.25;;;;;;;30.70;61.37;96771.91;5023942;28;20301;-63
2023/08/15 10:06:46;;;;;;;6.38;4.40;;;;;;;30.49;63.39;96763.66;5042278;28;20254;-62
2023/08/15 10:09:14;;;;;;;5.30;4.18;;;;;;;30.50;64.95;96761.75;5043575;28;20203;-62
2023/08/15 10:11:44;;;;;;;4.68;4.20;;;;;;;30.76;66.38;96754.47;5044825;28;20203;-63
2023/08/15 10:14:12;;;;;;;4.35;4.05;;;;;;;31.01;66.94;96757.28;5048885;28;20219;-62
2023/08/15 10:16:39;;;;;;;4.82;4.30;;;;;;;31.17;64.65;96767.19;5050877;28;20196;-64
2023/08/15 10:19:10;;;;;;;5.35;4.35;;;;;;;31.38;64.49;96768.84;5051510;28;20211;-62
2023/08/15 10:21:47;;;;;;;5.20;4.32;;;;;;;31.46;64.23;96759.28;5048685;28;20627;-62
2023/08/15 10:24:15;;;;;;;6.63;4.50;;;;;;;31.16;61.38;96764.72;5045713;28;20203;-61
2023/08/15 10:26:43;;;;;;;6.57;4.30;;;;;;;31.03;63.47;96766.06;5043055;28;20224;-62
2023/08/15 10:29:09;;;;;;;4.32;3.92;;;;;;;31.15;64.73;96763.88;5047776;28;20199;-62
2023/08/15 10:31:36;;;;;;;4.22;3.78;;;;;;;31.31;63.14;96767.47;5053937;28;20625;-62
2023/08/15 10:34:04;;;;;;;4.38;4.03;;;;;;;31.49;61.28;96764.22;5054109;28;20199;-62
2023/08/15 10:36:32;;;;;;;5.65;4.20;;;;;;;31.63;62.60;96761.78;5045511;28;20204;-62
2023/08/15 10:39:05;;;;;;;11.50;4.30;;;;;;;31.76;61.34;96750.28;5043237;28;20227;-61
2023/08/15 10:41:32;;;;;;;5.50;4.00;;;;;;;31.82;61.46;96757.38;5042405;28;20214;-62
2023/08/15 10:44:05;;;;;;;5.18;4.18;;;;;;;31.80;59.98;96745.91;5042859;28;20588;-62
2023/08/15 10:46:33;;;;;;;6.28;4.05;;;;;;;31.71;59.47;96747.56;5041943;28;20668;-62
2023/08/15 10:49:01;;;;;;;10.52;7.82;;;;;;;31.78;62.16;96748.09;5041805;28;20224;-62
2023/08/15 10:51:28;;;;;;;9.10;6.80;;;;;;;31.95;59.78;96751.38;5042057;28;20708;-62
2023/08/15 10:53:59;;;;;;;4.47;4.07;;;;;;;32.08;54.28;96745.34;5042528;28;20204;-63
2023/08/15 10:56:28;;;;;;;4.70;3.95;;;;;;;32.20;54.96;96754.09;5042374;28;20192;-63
2023/08/15 10:58:55;;;;;;;4.85;3.60;;;;;;;32.36;54.50;96747.47;5041928;28;20253;-62
2023/08/15 11:01:23;;;;;;;5.18;3.55;;;;;;;32.43;52.74;96734.28;5041622;28;20207;-63
2023/08/15 11:03:50;;;;;;;5.25;3.70;;;;;;;32.41;52.34;96736.50;5041760;28;20235;-62
2023/08/15 11:06:17;;;;;;;4.82;3.70;;;;;;;32.22;52.67;96740.94;5042250;28;20234;-61
2023/08/15 11:08:47;;;;;;;6.13;3.60;;;;;;;31.80;54.87;96743.16;5041554;28;20578;-63
2023/08/15 11:11:16;;;;;;;4.70;3.95;;;;;;;31.72;55.64;96749.19;5042056;28;20223;-62
2023/08/15 11:13:44;;;;;;;3.45;3.15;;;;;;;31.68;56.18;96748.09;5041449;28;20200;-62
2023/08/15 11:16:11;;;;;;;4.50;3.50;;;;;;;31.61;54.60;96740.16;5041357;28;20199;-62
2023/08/15 11:18:38;;;;;;;5.45;3.95;;;;;;;31.57;56.28;96734.44;5041961;28;20549;-62
2023/08/15 11:21:04;;;;;;;6.13;3.60;;;;;;;31.44;55.54;96737.69;5042053;28;20206;-62
2023/08/15 11:23:32;;;;;;;4.28;3.80;;;;;;;31.48;56.56;96736.06;5041866;28;20199;-62
2023/08/15 11:26:03;;;;;;;4.95;3.60;;;;;;;31.61;56.26;96731.13;5041806;28;20200;-62
2023/08/15 11:28:31;;;;;;;5.15;3.63;;;;;;;31.67;55.95;96721.88;5041854;28;20196;-62